GAF359 EDDC-EDDE
Flight info
| Callsign | GAF359 |
|---|---|
| Flight time | 0h 36m |
| Altitude | 28000 |
| Route | ABKIS4E ABKIS Z715 PEROX L602 SODRO/N0470F240 L602 NARUS NARUS1R |
| Aircraft | A359/H-SDE2E3GHIJ3J4J5LM1ORWXY/LB1D1 |
Departure
| Time | 2026-04-28 11:59 |
|---|---|
| Airport | Dresden Airport (EDDC) |
Arrival
| Time | 2026-04-28 12:36 |
|---|---|
| Airport | Erfurt-Weimar Airport (EDDE) |
| Time | Latitude | Longitude | Altitude | Speed | Heading |
|---|---|---|---|---|---|
| 2026-04-28 11:41 | 51.12466 | 13.76106 | 766 ft | 0 kts | 94° |
| 2026-04-28 11:49 | 51.12467 | 13.76110 | 766 ft | 1 kts | 82° |
| 2026-04-28 11:50 | 51.12480 | 13.76116 | 765 ft | 2 kts | 6° |
| 2026-04-28 11:50 | 51.12487 | 13.76075 | 766 ft | 10 kts | 273° |
| 2026-04-28 11:50 | 51.12459 | 13.75942 | 769 ft | 13 kts | 229° |
| 2026-04-28 11:50 | 51.12395 | 13.75836 | 770 ft | 11 kts | 227° |
| 2026-04-28 11:51 | 51.12380 | 13.75768 | 771 ft | 0 kts | 272° |
| 2026-04-28 11:54 | 51.12382 | 13.75739 | 771 ft | 1 kts | 288° |
| 2026-04-28 11:55 | 51.12384 | 13.75729 | 771 ft | 2 kts | 288° |
| 2026-04-28 11:56 | 51.12388 | 13.75714 | 771 ft | 0 kts | 291° |
| 2026-04-28 11:57 | 51.12404 | 13.75650 | 771 ft | 14 kts | 291° |
| 2026-04-28 11:57 | 51.12476 | 13.75516 | 775 ft | 11 kts | 345° |
| 2026-04-28 11:57 | 51.12523 | 13.75547 | 774 ft | 8 kts | 40° |
| 2026-04-28 11:57 | 51.12534 | 13.75561 | 773 ft | 0 kts | 40° |
| 2026-04-28 11:58 | 51.12588 | 13.75635 | 773 ft | 40 kts | 40° |
| 2026-04-28 11:59 | 51.12998 | 13.76203 | 752 ft | 113 kts | 40° |
| 2026-04-28 11:59 | 51.13731 | 13.77215 | 951 ft | 155 kts | 42° |
| 2026-04-28 11:59 | 51.14535 | 13.78353 | 1744 ft | 153 kts | 44° |
| 2026-04-28 11:59 | 51.15291 | 13.79436 | 2627 ft | 142 kts | 43° |
| 2026-04-28 12:00 | 51.16080 | 13.80544 | 2997 ft | 162 kts | 41° |
| 2026-04-28 12:00 | 51.16970 | 13.81793 | 3236 ft | 184 kts | 42° |
| 2026-04-28 12:00 | 51.18008 | 13.83225 | 3860 ft | 209 kts | 41° |
| 2026-04-28 12:00 | 51.19055 | 13.85005 | 4614 ft | 234 kts | 58° |
| 2026-04-28 12:01 | 51.19498 | 13.87603 | 5451 ft | 253 kts | 85° |
| 2026-04-28 12:01 | 51.19534 | 13.90527 | 6332 ft | 277 kts | 92° |
| 2026-04-28 12:01 | 51.19039 | 13.93689 | 6802 ft | 316 kts | 115° |
| 2026-04-28 12:01 | 51.17633 | 13.96658 | 7066 ft | 356 kts | 133° |
| 2026-04-28 12:02 | 51.15815 | 13.99518 | 7745 ft | 376 kts | 134° |
| 2026-04-28 12:02 | 51.13945 | 14.02457 | 9086 ft | 376 kts | 134° |
| 2026-04-28 12:02 | 51.12112 | 14.05386 | 10727 ft | 372 kts | 133° |
| 2026-04-28 12:02 | 51.10313 | 14.08293 | 12206 ft | 369 kts | 133° |
| 2026-04-28 12:03 | 51.08343 | 14.10981 | 13293 ft | 378 kts | 147° |
| 2026-04-28 12:03 | 51.05915 | 14.12619 | 14336 ft | 383 kts | 168° |
| 2026-04-28 12:03 | 51.03261 | 14.12780 | 15074 ft | 385 kts | 191° |
| 2026-04-28 12:03 | 51.00753 | 14.11364 | 15847 ft | 384 kts | 213° |
| 2026-04-28 12:04 | 50.98755 | 14.08610 | 16634 ft | 380 kts | 234° |
| 2026-04-28 12:04 | 50.97493 | 14.04963 | 17483 ft | 378 kts | 252° |
| 2026-04-28 12:04 | 50.96407 | 14.01198 | 18268 ft | 385 kts | 241° |
| 2026-04-28 12:04 | 50.94691 | 13.97891 | 19087 ft | 392 kts | 229° |
| 2026-04-28 12:05 | 50.92732 | 13.94838 | 19811 ft | 397 kts | 227° |
| 2026-04-28 12:05 | 50.90721 | 13.91795 | 20528 ft | 402 kts | 226° |
| 2026-04-28 12:05 | 50.88687 | 13.88726 | 21281 ft | 406 kts | 227° |
| 2026-04-28 12:05 | 50.86636 | 13.85626 | 22015 ft | 410 kts | 227° |
| 2026-04-28 12:06 | 50.84562 | 13.82492 | 22743 ft | 413 kts | 227° |
| 2026-04-28 12:06 | 50.82475 | 13.79335 | 23447 ft | 418 kts | 227° |
| 2026-04-28 12:06 | 50.80486 | 13.75979 | 24096 ft | 418 kts | 234° |
| 2026-04-28 12:06 | 50.78885 | 13.72151 | 24690 ft | 417 kts | 245° |
| 2026-04-28 12:07 | 50.77732 | 13.67964 | 25337 ft | 416 kts | 252° |
| 2026-04-28 12:07 | 50.76723 | 13.63661 | 25977 ft | 418 kts | 253° |
| 2026-04-28 12:07 | 50.75726 | 13.59352 | 26656 ft | 419 kts | 253° |
| 2026-04-28 12:07 | 50.74716 | 13.55018 | 27266 ft | 422 kts | 252° |
| 2026-04-28 12:08 | 50.73691 | 13.50646 | 27842 ft | 426 kts | 252° |
| 2026-04-28 12:08 | 50.72650 | 13.46228 | 28171 ft | 435 kts | 252° |
| 2026-04-28 12:08 | 50.71575 | 13.41673 | 28221 ft | 450 kts | 252° |
| 2026-04-28 12:08 | 50.70459 | 13.36965 | 28218 ft | 464 kts | 252° |
| 2026-04-28 12:09 | 50.68188 | 13.27446 | 28223 ft | 468 kts | 252° |
| 2026-04-28 12:09 | 50.65889 | 13.17853 | 28219 ft | 468 kts | 252° |
| 2026-04-28 12:10 | 50.63581 | 13.08268 | 28219 ft | 468 kts | 251° |
| 2026-04-28 12:10 | 50.60837 | 12.98919 | 28203 ft | 472 kts | 246° |
| 2026-04-28 12:11 | 50.57801 | 12.89704 | 28199 ft | 474 kts | 245° |
| 2026-04-28 12:11 | 50.54725 | 12.80525 | 28220 ft | 474 kts | 245° |
| 2026-04-28 12:12 | 50.51668 | 12.71349 | 28136 ft | 472 kts | 245° |
| 2026-04-28 12:12 | 50.50148 | 12.66774 | 27956 ft | 472 kts | 245° |
| 2026-04-28 12:12 | 50.48629 | 12.62201 | 27798 ft | 470 kts | 245° |
| 2026-04-28 12:13 | 50.47131 | 12.57697 | 27601 ft | 462 kts | 245° |
| 2026-04-28 12:13 | 50.45650 | 12.53252 | 27468 ft | 458 kts | 245° |
| 2026-04-28 12:13 | 50.44194 | 12.48887 | 27309 ft | 457 kts | 245° |
| 2026-04-28 12:13 | 50.42703 | 12.44423 | 27145 ft | 456 kts | 245° |
| 2026-04-28 12:14 | 50.41251 | 12.40083 | 26998 ft | 455 kts | 245° |
| 2026-04-28 12:14 | 50.39782 | 12.35699 | 26838 ft | 454 kts | 245° |
| 2026-04-28 12:14 | 50.38377 | 12.31282 | 26686 ft | 452 kts | 249° |
| 2026-04-28 12:14 | 50.37339 | 12.26658 | 26536 ft | 448 kts | 257° |
| 2026-04-28 12:15 | 50.36791 | 12.21876 | 26385 ft | 445 kts | 266° |
| 2026-04-28 12:15 | 50.36784 | 12.17057 | 26228 ft | 442 kts | 276° |
| 2026-04-28 12:15 | 50.37326 | 12.12330 | 26072 ft | 440 kts | 286° |
| 2026-04-28 12:15 | 50.38381 | 12.07843 | 25919 ft | 439 kts | 294° |
| 2026-04-28 12:16 | 50.39672 | 12.03516 | 25766 ft | 439 kts | 296° |
| 2026-04-28 12:16 | 50.41045 | 11.99243 | 25619 ft | 438 kts | 297° |
| 2026-04-28 12:16 | 50.42449 | 11.94991 | 25473 ft | 438 kts | 297° |
| 2026-04-28 12:16 | 50.43849 | 11.90762 | 25282 ft | 437 kts | 297° |
| 2026-04-28 12:17 | 50.45236 | 11.86535 | 25031 ft | 435 kts | 297° |
| 2026-04-28 12:17 | 50.46611 | 11.82304 | 24786 ft | 434 kts | 296° |
| 2026-04-28 12:17 | 50.47974 | 11.78074 | 24566 ft | 433 kts | 296° |
| 2026-04-28 12:17 | 50.49319 | 11.73853 | 24333 ft | 432 kts | 296° |
| 2026-04-28 12:18 | 50.50657 | 11.69632 | 24093 ft | 431 kts | 296° |
| 2026-04-28 12:18 | 50.51988 | 11.65416 | 23857 ft | 430 kts | 296° |
| 2026-04-28 12:18 | 50.53303 | 11.61245 | 23339 ft | 423 kts | 296° |
| 2026-04-28 12:18 | 50.54598 | 11.57134 | 22710 ft | 417 kts | 296° |
| 2026-04-28 12:19 | 50.55875 | 11.53076 | 22073 ft | 411 kts | 296° |
| 2026-04-28 12:19 | 50.57118 | 11.49123 | 21465 ft | 406 kts | 296° |
| 2026-04-28 12:19 | 50.58367 | 11.45165 | 20837 ft | 402 kts | 296° |
| 2026-04-28 12:19 | 50.59603 | 11.41243 | 20209 ft | 398 kts | 296° |
| 2026-04-28 12:20 | 50.60827 | 11.37352 | 19575 ft | 394 kts | 296° |
| 2026-04-28 12:20 | 50.62040 | 11.33493 | 18946 ft | 392 kts | 296° |
| 2026-04-28 12:20 | 50.63242 | 11.29661 | 18269 ft | 389 kts | 296° |
| 2026-04-28 12:20 | 50.64446 | 11.25857 | 17588 ft | 385 kts | 298° |
| 2026-04-28 12:21 | 50.65917 | 11.22365 | 16958 ft | 381 kts | 310° |
| 2026-04-28 12:21 | 50.67897 | 11.19638 | 16329 ft | 378 kts | 327° |
| 2026-04-28 12:21 | 50.70283 | 11.17926 | 15689 ft | 377 kts | 343° |
| 2026-04-28 12:21 | 50.72861 | 11.17220 | 15040 ft | 375 kts | 353° |
| 2026-04-28 12:22 | 50.75454 | 11.16852 | 14404 ft | 373 kts | 353° |
| 2026-04-28 12:22 | 50.78031 | 11.16513 | 13732 ft | 370 kts | 354° |
| 2026-04-28 12:22 | 50.80586 | 11.16167 | 13107 ft | 367 kts | 354° |
| 2026-04-28 12:22 | 50.83117 | 11.15816 | 12477 ft | 363 kts | 354° |
| 2026-04-28 12:23 | 50.85616 | 11.15464 | 11876 ft | 358 kts | 355° |
| 2026-04-28 12:23 | 50.88041 | 11.15119 | 11518 ft | 348 kts | 355° |
| 2026-04-28 12:23 | 50.90429 | 11.14780 | 11388 ft | 331 kts | 355° |
| 2026-04-28 12:23 | 50.92670 | 11.14458 | 11291 ft | 315 kts | 355° |
| 2026-04-28 12:24 | 50.94772 | 11.14153 | 11176 ft | 301 kts | 355° |
| 2026-04-28 12:24 | 50.96810 | 11.13858 | 11042 ft | 288 kts | 355° |
| 2026-04-28 12:24 | 50.98827 | 11.13573 | 10879 ft | 301 kts | 356° |
| 2026-04-28 12:24 | 51.00901 | 11.13154 | 10791 ft | 295 kts | 348° |
| 2026-04-28 12:25 | 51.02778 | 11.12021 | 10680 ft | 285 kts | 330° |
| 2026-04-28 12:25 | 51.04275 | 11.10069 | 10525 ft | 276 kts | 313° |
| 2026-04-28 12:25 | 51.05291 | 11.07521 | 10273 ft | 274 kts | 295° |
| 2026-04-28 12:25 | 51.05771 | 11.04561 | 9936 ft | 283 kts | 278° |
| 2026-04-28 12:26 | 51.05997 | 11.01409 | 9625 ft | 290 kts | 278° |
| 2026-04-28 12:26 | 51.06228 | 10.98225 | 9275 ft | 289 kts | 278° |
| 2026-04-28 12:26 | 51.06465 | 10.95052 | 8923 ft | 289 kts | 279° |
| 2026-04-28 12:26 | 51.06693 | 10.91879 | 8451 ft | 289 kts | 269° |
| 2026-04-28 12:27 | 51.06775 | 10.88689 | 7822 ft | 291 kts | 266° |
| 2026-04-28 12:27 | 51.06877 | 10.85451 | 7229 ft | 294 kts | 269° |
| 2026-04-28 12:27 | 51.07045 | 10.82253 | 6849 ft | 286 kts | 269° |
| 2026-04-28 12:27 | 51.07232 | 10.79110 | 6404 ft | 283 kts | 269° |
| 2026-04-28 12:28 | 51.07435 | 10.75958 | 5635 ft | 291 kts | 271° |
| 2026-04-28 12:28 | 51.07553 | 10.72742 | 5074 ft | 289 kts | 265° |
| 2026-04-28 12:28 | 51.07563 | 10.69566 | 4522 ft | 289 kts | 264° |
| 2026-04-28 12:28 | 51.07455 | 10.66372 | 4114 ft | 288 kts | 252° |
| 2026-04-28 12:29 | 51.05454 | 10.62806 | 3990 ft | 259 kts | 187° |
| 2026-04-28 12:29 | 51.03726 | 10.62142 | 3966 ft | 247 kts | 179° |
| 2026-04-28 12:29 | 51.02097 | 10.61882 | 3988 ft | 224 kts | 165° |
| 2026-04-28 12:30 | 51.00719 | 10.62556 | 3978 ft | 193 kts | 130° |
| 2026-04-28 12:30 | 51.00246 | 10.64215 | 3980 ft | 153 kts | 73° |
| 2026-04-28 12:30 | 51.00359 | 10.65765 | 4095 ft | 139 kts | 79° |
| 2026-04-28 12:30 | 51.00322 | 10.67312 | 4064 ft | 139 kts | 85° |
| 2026-04-28 12:31 | 51.00206 | 10.68833 | 3973 ft | 137 kts | 86° |
| 2026-04-28 12:31 | 51.00104 | 10.70367 | 3944 ft | 139 kts | 85° |
| 2026-04-28 12:31 | 50.99953 | 10.71839 | 3769 ft | 132 kts | 89° |
| 2026-04-28 12:31 | 50.99823 | 10.73248 | 3605 ft | 128 kts | 85° |
| 2026-04-28 12:32 | 50.99715 | 10.74660 | 3385 ft | 129 kts | 85° |
| 2026-04-28 12:32 | 50.99603 | 10.76055 | 3258 ft | 128 kts | 84° |
| 2026-04-28 12:32 | 50.99488 | 10.77441 | 3058 ft | 124 kts | 84° |
| 2026-04-28 12:32 | 50.99377 | 10.78801 | 2922 ft | 125 kts | 83° |
| 2026-04-28 12:33 | 50.99266 | 10.80179 | 2760 ft | 128 kts | 86° |
| 2026-04-28 12:33 | 50.99149 | 10.81585 | 2589 ft | 128 kts | 85° |
| 2026-04-28 12:33 | 50.99039 | 10.82978 | 2392 ft | 125 kts | 86° |
| 2026-04-28 12:33 | 50.98922 | 10.84348 | 2252 ft | 125 kts | 84° |
| 2026-04-28 12:34 | 50.98813 | 10.85710 | 2080 ft | 124 kts | 86° |
| 2026-04-28 12:34 | 50.98701 | 10.87062 | 1905 ft | 124 kts | 86° |
| 2026-04-28 12:34 | 50.98589 | 10.88434 | 1734 ft | 126 kts | 88° |
| 2026-04-28 12:34 | 50.98486 | 10.89815 | 1583 ft | 127 kts | 85° |
| 2026-04-28 12:35 | 50.98354 | 10.91202 | 1427 ft | 127 kts | 86° |
| 2026-04-28 12:35 | 50.98244 | 10.92575 | 1261 ft | 124 kts | 86° |
| 2026-04-28 12:35 | 50.98128 | 10.93929 | 1100 ft | 123 kts | 92° |
| 2026-04-28 12:35 | 50.98036 | 10.95173 | 1053 ft | 89 kts | 96° |
| 2026-04-28 12:36 | 50.97998 | 10.95697 | 1046 ft | 22 kts | 97° |
| 2026-04-28 12:36 | 50.97975 | 10.95962 | 1045 ft | 27 kts | 98° |
| 2026-04-28 12:36 | 50.97948 | 10.96253 | 1044 ft | 24 kts | 97° |
| 2026-04-28 12:36 | 50.97921 | 10.96564 | 1046 ft | 33 kts | 98° |
| 2026-04-28 12:37 | 50.97892 | 10.96903 | 1044 ft | 14 kts | 97° |
| 2026-04-28 12:37 | 50.97864 | 10.97064 | 1042 ft | 12 kts | 127° |
| 2026-04-28 12:37 | 50.97851 | 10.97070 | 1042 ft | 7 kts | 171° |
| 2026-04-28 12:37 | 50.97751 | 10.97053 | 1041 ft | 1 kts | 187° |
| 2026-04-28 12:38 | 50.97750 | 10.97053 | 1041 ft | 1 kts | 187° |
| 2026-04-28 12:38 | 50.97715 | 10.97045 | 1041 ft | 10 kts | 193° |
| 2026-04-28 12:39 | 50.97680 | 10.96926 | 1042 ft | 15 kts | 274° |
| 2026-04-28 12:39 | 50.97694 | 10.96747 | 1043 ft | 18 kts | 277° |
| 2026-04-28 12:39 | 50.97710 | 10.96528 | 1044 ft | 22 kts | 277° |
| 2026-04-28 12:39 | 50.97730 | 10.96263 | 1045 ft | 26 kts | 277° |
| 2026-04-28 12:40 | 50.97746 | 10.96070 | 1046 ft | 0 kts | 277° |
| 2026-04-28 12:40 | 50.97750 | 10.96025 | 1046 ft | 10 kts | 277° |
| 2026-04-28 12:40 | 50.97736 | 10.95957 | 1047 ft | 5 kts | 215° |
| 2026-04-28 12:40 | 50.97679 | 10.95936 | 1047 ft | 12 kts | 181° |
| 2026-04-28 12:41 | 50.97606 | 10.95963 | 1046 ft | 8 kts | 162° |
| 2026-04-28 12:41 | 50.97598 | 10.95967 | 1046 ft | 0 kts | 162° |